sensor_id;sensor_type;location;lat;lon;timestamp;P1;durP1;ratioP1;P2;durP2;ratioP2
11203;SDS011;5659;49.408;11.116;2022-07-10T00:00:34;6.30;;;4.80;;
11203;SDS011;5659;49.408;11.116;2022-07-10T00:03:01;9.07;;;4.70;;
11203;SDS011;5659;49.408;11.116;2022-07-10T00:05:27;8.32;;;4.55;;
11203;SDS011;5659;49.408;11.116;2022-07-10T00:07:54;5.22;;;4.20;;
11203;SDS011;5659;49.408;11.116;2022-07-10T00:10:20;6.63;;;4.60;;
11203;SDS011;5659;49.408;11.116;2022-07-10T00:12:46;5.35;;;4.85;;
11203;SDS011;5659;49.408;11.116;2022-07-10T00:15:13;4.95;;;4.53;;
11203;SDS011;5659;49.408;11.116;2022-07-10T00:17:40;7.40;;;4.57;;
11203;SDS011;5659;49.408;11.116;2022-07-10T00:20:06;8.40;;;4.80;;
11203;SDS011;5659;49.408;11.116;2022-07-10T00:22:36;5.72;;;4.53;;
11203;SDS011;5659;49.408;11.116;2022-07-10T00:25:06;7.65;;;4.90;;
11203;SDS011;5659;49.408;11.116;2022-07-10T00:27:32;6.57;;;5.22;;
11203;SDS011;5659;49.408;11.116;2022-07-10T00:29:58;6.15;;;4.63;;
11203;SDS011;5659;49.408;11.116;2022-07-10T00:32:25;5.70;;;5.10;;
11203;SDS011;5659;49.408;11.116;2022-07-10T00:34:51;7.55;;;4.65;;
11203;SDS011;5659;49.408;11.116;2022-07-10T00:37:17;5.55;;;4.68;;
11203;SDS011;5659;49.408;11.116;2022-07-10T00:39:45;5.55;;;4.75;;
11203;SDS011;5659;49.408;11.116;2022-07-10T00:42:12;6.35;;;4.70;;
11203;SDS011;5659;49.408;11.116;2022-07-10T00:44:39;5.85;;;5.05;;
11203;SDS011;5659;49.408;11.116;2022-07-10T00:47:05;5.82;;;5.25;;
11203;SDS011;5659;49.408;11.116;2022-07-10T00:49:32;6.38;;;5.18;;
11203;SDS011;5659;49.408;11.116;2022-07-10T00:51:59;5.95;;;4.68;;
11203;SDS011;5659;49.408;11.116;2022-07-10T00:54:26;6.38;;;5.22;;
11203;SDS011;5659;49.408;11.116;2022-07-10T00:56:52;6.68;;;5.53;;
11203;SDS011;5659;49.408;11.116;2022-07-10T00:59:18;7.80;;;5.93;;
11203;SDS011;5659;49.408;11.116;2022-07-10T01:01:45;6.93;;;5.85;;
11203;SDS011;5659;49.408;11.116;2022-07-10T01:04:11;6.60;;;5.32;;
11203;SDS011;5659;49.408;11.116;2022-07-10T01:06:37;6.65;;;6.03;;
11203;SDS011;5659;49.408;11.116;2022-07-10T01:09:03;8.02;;;5.97;;
11203;SDS011;5659;49.408;11.116;2022-07-10T01:11:29;6.32;;;5.72;;
11203;SDS011;5659;49.408;11.116;2022-07-10T01:13:57;10.88;;;6.88;;
11203;SDS011;5659;49.408;11.116;2022-07-10T01:16:23;7.75;;;6.60;;
11203;SDS011;5659;49.408;11.116;2022-07-10T01:18:49;9.27;;;6.57;;
11203;SDS011;5659;49.408;11.116;2022-07-10T01:21:28;7.63;;;6.55;;
11203;SDS011;5659;49.408;11.116;2022-07-10T01:23:55;7.55;;;6.50;;
11203;SDS011;5659;49.408;11.116;2022-07-10T01:26:21;8.13;;;7.43;;
11203;SDS011;5659;49.408;11.116;2022-07-10T01:28:49;8.32;;;7.45;;
11203;SDS011;5659;49.408;11.116;2022-07-10T01:31:16;11.65;;;7.20;;
11203;SDS011;5659;49.408;11.116;2022-07-10T01:33:42;8.32;;;7.18;;
11203;SDS011;5659;49.408;11.116;2022-07-10T01:36:09;8.65;;;7.72;;
11203;SDS011;5659;49.408;11.116;2022-07-10T01:38:35;8.35;;;7.00;;
11203;SDS011;5659;49.408;11.116;2022-07-10T01:41:01;8.57;;;7.00;;
11203;SDS011;5659;49.408;11.116;2022-07-10T01:43:27;7.22;;;6.57;;
11203;SDS011;5659;49.408;11.116;2022-07-10T01:45:53;7.80;;;6.57;;
11203;SDS011;5659;49.408;11.116;2022-07-10T01:48:19;6.80;;;6.10;;
11203;SDS011;5659;49.408;11.116;2022-07-10T01:50:45;6.82;;;6.13;;
11203;SDS011;5659;49.408;11.116;2022-07-10T01:53:11;6.60;;;5.93;;
11203;SDS011;5659;49.408;11.116;2022-07-10T01:55:37;6.18;;;5.45;;
11203;SDS011;5659;49.408;11.116;2022-07-10T01:58:03;8.32;;;6.00;;
11203;SDS011;5659;49.408;11.116;2022-07-10T02:00:29;6.22;;;5.63;;
11203;SDS011;5659;49.408;11.116;2022-07-10T02:02:55;9.23;;;5.95;;
11203;SDS011;5659;49.408;11.116;2022-07-10T02:05:40;6.28;;;5.43;;
11203;SDS011;5659;49.408;11.116;2022-07-10T02:08:06;6.40;;;5.80;;
11203;SDS011;5659;49.408;11.116;2022-07-10T02:10:32;8.98;;;5.50;;
11203;SDS011;5659;49.408;11.116;2022-07-10T02:12:58;8.18;;;5.55;;
11203;SDS011;5659;49.408;11.116;2022-07-10T02:15:24;7.45;;;5.28;;
11203;SDS011;5659;49.408;11.116;2022-07-10T02:17:50;5.78;;;5.18;;
11203;SDS011;5659;49.408;11.116;2022-07-10T02:20:16;5.35;;;4.82;;
11203;SDS011;5659;49.408;11.116;2022-07-10T02:22:42;5.78;;;4.93;;
11203;SDS011;5659;49.408;11.116;2022-07-10T02:25:08;5.60;;;5.10;;
11203;SDS011;5659;49.408;11.116;2022-07-10T02:27:34;5.43;;;4.93;;
11203;SDS011;5659;49.408;11.116;2022-07-10T02:30:00;9.02;;;4.82;;
11203;SDS011;5659;49.408;11.116;2022-07-10T02:32:26;9.50;;;5.22;;
11203;SDS011;5659;49.408;11.116;2022-07-10T02:34:52;6.38;;;4.82;;
11203;SDS011;5659;49.408;11.116;2022-07-10T02:37:18;5.30;;;4.72;;
11203;SDS011;5659;49.408;11.116;2022-07-10T02:39:44;5.20;;;4.55;;
11203;SDS011;5659;49.408;11.116;2022-07-10T02:42:10;10.13;;;4.57;;
11203;SDS011;5659;49.408;11.116;2022-07-10T02:44:36;5.80;;;4.40;;
11203;SDS011;5659;49.408;11.116;2022-07-10T02:47:02;6.93;;;4.50;;
11203;SDS011;5659;49.408;11.116;2022-07-10T02:49:28;6.10;;;4.20;;
11203;SDS011;5659;49.408;11.116;2022-07-10T02:51:54;5.35;;;3.97;;
11203;SDS011;5659;49.408;11.116;2022-07-10T02:54:20;6.78;;;4.05;;
11203;SDS011;5659;49.408;11.116;2022-07-10T02:56:46;6.45;;;4.07;;
11203;SDS011;5659;49.408;11.116;2022-07-10T02:59:12;6.57;;;3.83;;
11203;SDS011;5659;49.408;11.116;2022-07-10T03:01:38;5.40;;;3.22;;
11203;SDS011;5659;49.408;11.116;2022-07-10T03:04:04;5.60;;;3.58;;
11203;SDS011;5659;49.408;11.116;2022-07-10T03:06:30;6.22;;;3.25;;
11203;SDS011;5659;49.408;11.116;2022-07-10T03:08:56;5.90;;;3.25;;
11203;SDS011;5659;49.408;11.116;2022-07-10T03:11:22;5.20;;;2.83;;
11203;SDS011;5659;49.408;11.116;2022-07-10T03:13:48;7.22;;;3.13;;
11203;SDS011;5659;49.408;11.116;2022-07-10T03:16:14;5.50;;;2.58;;
11203;SDS011;5659;49.408;11.116;2022-07-10T03:18:40;4.18;;;2.70;;
11203;SDS011;5659;49.408;11.116;2022-07-10T03:21:06;6.80;;;2.60;;
11203;SDS011;5659;49.408;11.116;2022-07-10T03:23:32;6.90;;;2.42;;
11203;SDS011;5659;49.408;11.116;2022-07-10T03:25:58;7.90;;;2.58;;
11203;SDS011;5659;49.408;11.116;2022-07-10T03:28:24;4.85;;;2.30;;
11203;SDS011;5659;49.408;11.116;2022-07-10T03:30:50;4.03;;;2.10;;
11203;SDS011;5659;49.408;11.116;2022-07-10T03:33:16;8.80;;;2.67;;
11203;SDS011;5659;49.408;11.116;2022-07-10T03:35:42;10.20;;;2.42;;
11203;SDS011;5659;49.408;11.116;2022-07-10T03:38:08;4.35;;;2.60;;
11203;SDS011;5659;49.408;11.116;2022-07-10T03:40:34;11.38;;;2.50;;
11203;SDS011;5659;49.408;11.116;2022-07-10T03:43:00;7.30;;;2.17;;
11203;SDS011;5659;49.408;11.116;2022-07-10T03:45:27;7.68;;;2.22;;
11203;SDS011;5659;49.408;11.116;2022-07-10T03:47:53;6.45;;;2.10;;
11203;SDS011;5659;49.408;11.116;2022-07-10T03:50:19;8.63;;;2.25;;
11203;SDS011;5659;49.408;11.116;2022-07-10T03:52:45;3.67;;;1.98;;
11203;SDS011;5659;49.408;11.116;2022-07-10T03:55:11;3.92;;;2.05;;
11203;SDS011;5659;49.408;11.116;2022-07-10T03:57:37;4.18;;;2.03;;
11203;SDS011;5659;49.408;11.116;2022-07-10T04:00:30;7.95;;;2.20;;
11203;SDS011;5659;49.408;11.116;2022-07-10T04:02:57;5.28;;;1.98;;
11203;SDS011;5659;49.408;11.116;2022-07-10T04:05:23;6.00;;;2.10;;
11203;SDS011;5659;49.408;11.116;2022-07-10T04:07:49;8.05;;;2.40;;
11203;SDS011;5659;49.408;11.116;2022-07-10T04:10:15;8.27;;;2.03;;
11203;SDS011;5659;49.408;11.116;2022-07-10T04:12:42;8.85;;;3.13;;
11203;SDS011;5659;49.408;11.116;2022-07-10T04:15:08;9.60;;;2.60;;
11203;SDS011;5659;49.408;11.116;2022-07-10T04:17:34;6.30;;;2.60;;
11203;SDS011;5659;49.408;11.116;2022-07-10T04:20:00;3.55;;;2.20;;
11203;SDS011;5659;49.408;11.116;2022-07-10T04:22:26;7.63;;;2.63;;
11203;SDS011;5659;49.408;11.116;2022-07-10T04:24:53;5.05;;;2.60;;
11203;SDS011;5659;49.408;11.116;2022-07-10T04:27:19;6.60;;;2.70;;
11203;SDS011;5659;49.408;11.116;2022-07-10T04:29:45;8.18;;;2.38;;
11203;SDS011;5659;49.408;11.116;2022-07-10T04:32:12;6.85;;;2.58;;
11203;SDS011;5659;49.408;11.116;2022-07-10T04:34:37;6.30;;;2.53;;
11203;SDS011;5659;49.408;11.116;2022-07-10T04:37:04;3.72;;;2.15;;
11203;SDS011;5659;49.408;11.116;2022-07-10T04:39:30;9.15;;;2.45;;
11203;SDS011;5659;49.408;11.116;2022-07-10T04:41:56;5.05;;;2.35;;
11203;SDS011;5659;49.408;11.116;2022-07-10T04:44:22;6.78;;;3.05;;
11203;SDS011;5659;49.408;11.116;2022-07-10T04:46:48;3.95;;;1.70;;
11203;SDS011;5659;49.408;11.116;2022-07-10T04:49:14;4.88;;;2.35;;
11203;SDS011;5659;49.408;11.116;2022-07-10T04:51:40;8.68;;;2.25;;
11203;SDS011;5659;49.408;11.116;2022-07-10T04:54:06;7.30;;;2.22;;
11203;SDS011;5659;49.408;11.116;2022-07-10T04:56:32;5.35;;;1.90;;
11203;SDS011;5659;49.408;11.116;2022-07-10T04:58:58;9.43;;;2.28;;
11203;SDS011;5659;49.408;11.116;2022-07-10T05:01:24;8.85;;;2.08;;
11203;SDS011;5659;49.408;11.116;2022-07-10T05:03:50;7.75;;;1.90;;
11203;SDS011;5659;49.408;11.116;2022-07-10T05:06:16;5.97;;;2.20;;
11203;SDS011;5659;49.408;11.116;2022-07-10T05:08:42;6.43;;;1.85;;
11203;SDS011;5659;49.408;11.116;2022-07-10T05:11:08;5.43;;;1.67;;
11203;SDS011;5659;49.408;11.116;2022-07-10T05:13:35;8.10;;;2.10;;
11203;SDS011;5659;49.408;11.116;2022-07-10T05:16:01;5.90;;;1.73;;
11203;SDS011;5659;49.408;11.116;2022-07-10T05:18:28;8.13;;;1.98;;
11203;SDS011;5659;49.408;11.116;2022-07-10T05:20:54;5.10;;;1.77;;
11203;SDS011;5659;49.408;11.116;2022-07-10T05:23:20;9.32;;;2.05;;
11203;SDS011;5659;49.408;11.116;2022-07-10T05:25:46;3.13;;;1.80;;
11203;SDS011;5659;49.408;11.116;2022-07-10T05:28:12;6.40;;;1.77;;
11203;SDS011;5659;49.408;11.116;2022-07-10T05:30:39;4.10;;;1.90;;
11203;SDS011;5659;49.408;11.116;2022-07-10T05:33:05;3.53;;;1.80;;
11203;SDS011;5659;49.408;11.116;2022-07-10T05:35:31;2.95;;;1.67;;
11203;SDS011;5659;49.408;11.116;2022-07-10T05:37:57;6.90;;;1.77;;
11203;SDS011;5659;49.408;11.116;2022-07-10T05:40:23;6.53;;;2.03;;
11203;SDS011;5659;49.408;11.116;2022-07-10T05:42:49;6.05;;;1.70;;
11203;SDS011;5659;49.408;11.116;2022-07-10T05:45:16;3.72;;;1.83;;
11203;SDS011;5659;49.408;11.116;2022-07-10T05:47:42;8.52;;;2.30;;
11203;SDS011;5659;49.408;11.116;2022-07-10T05:50:08;5.95;;;1.75;;
11203;SDS011;5659;49.408;11.116;2022-07-10T05:52:34;6.20;;;1.80;;
11203;SDS011;5659;49.408;11.116;2022-07-10T05:55:00;4.55;;;1.85;;
11203;SDS011;5659;49.408;11.116;2022-07-10T05:57:26;3.65;;;1.90;;
11203;SDS011;5659;49.408;11.116;2022-07-10T05:59:52;6.15;;;1.73;;
11203;SDS011;5659;49.408;11.116;2022-07-10T06:02:18;6.45;;;1.65;;
11203;SDS011;5659;49.408;11.116;2022-07-10T06:04:44;7.07;;;1.95;;
11203;SDS011;5659;49.408;11.116;2022-07-10T06:07:10;7.38;;;1.70;;
11203;SDS011;5659;49.408;11.116;2022-07-10T06:09:36;8.10;;;1.63;;
11203;SDS011;5659;49.408;11.116;2022-07-10T06:12:02;6.38;;;1.77;;
11203;SDS011;5659;49.408;11.116;2022-07-10T06:14:28;9.70;;;1.60;;
11203;SDS011;5659;49.408;11.116;2022-07-10T06:16:54;5.75;;;1.40;;
11203;SDS011;5659;49.408;11.116;2022-07-10T06:19:20;3.78;;;1.50;;
11203;SDS011;5659;49.408;11.116;2022-07-10T06:21:46;6.00;;;1.55;;
11203;SDS011;5659;49.408;11.116;2022-07-10T06:24:12;6.15;;;1.90;;
11203;SDS011;5659;49.408;11.116;2022-07-10T06:26:38;4.50;;;1.42;;
11203;SDS011;5659;49.408;11.116;2022-07-10T06:29:04;3.95;;;1.60;;
11203;SDS011;5659;49.408;11.116;2022-07-10T06:31:31;6.57;;;1.50;;
11203;SDS011;5659;49.408;11.116;2022-07-10T06:33:56;6.28;;;1.50;;
11203;SDS011;5659;49.408;11.116;2022-07-10T06:36:22;6.07;;;1.60;;
11203;SDS011;5659;49.408;11.116;2022-07-10T06:38:48;7.50;;;1.42;;
11203;SDS011;5659;49.408;11.116;2022-07-10T06:41:14;4.00;;;1.50;;
11203;SDS011;5659;49.408;11.116;2022-07-10T06:43:40;7.88;;;1.80;;
11203;SDS011;5659;49.408;11.116;2022-07-10T06:46:06;6.78;;;1.30;;
11203;SDS011;5659;49.408;11.116;2022-07-10T06:48:32;3.85;;;1.52;;
11203;SDS011;5659;49.408;11.116;2022-07-10T06:51:00;4.55;;;1.50;;
11203;SDS011;5659;49.408;11.116;2022-07-10T06:53:26;8.60;;;2.10;;
11203;SDS011;5659;49.408;11.116;2022-07-10T06:55:53;5.00;;;1.73;;
11203;SDS011;5659;49.408;11.116;2022-07-10T06:58:19;7.25;;;1.60;;
11203;SDS011;5659;49.408;11.116;2022-07-10T07:00:45;7.10;;;1.55;;
11203;SDS011;5659;49.408;11.116;2022-07-10T07:03:11;6.00;;;1.50;;
11203;SDS011;5659;49.408;11.116;2022-07-10T07:05:37;4.72;;;1.50;;
11203;SDS011;5659;49.408;11.116;2022-07-10T07:08:03;4.85;;;1.90;;
11203;SDS011;5659;49.408;11.116;2022-07-10T07:10:29;5.30;;;1.50;;
11203;SDS011;5659;49.408;11.116;2022-07-10T07:12:55;5.97;;;1.35;;
11203;SDS011;5659;49.408;11.116;2022-07-10T07:15:21;3.47;;;1.40;;
11203;SDS011;5659;49.408;11.116;2022-07-10T07:17:49;9.23;;;1.70;;
11203;SDS011;5659;49.408;11.116;2022-07-10T07:20:36;4.50;;;1.60;;
11203;SDS011;5659;49.408;11.116;2022-07-10T07:23:22;7.65;;;1.83;;
11203;SDS011;5659;49.408;11.116;2022-07-10T07:25:48;8.48;;;1.50;;
11203;SDS011;5659;49.408;11.116;2022-07-10T07:28:15;3.88;;;1.30;;
11203;SDS011;5659;49.408;11.116;2022-07-10T07:30:42;5.07;;;1.63;;
11203;SDS011;5659;49.408;11.116;2022-07-10T07:33:08;6.82;;;1.60;;
11203;SDS011;5659;49.408;11.116;2022-07-10T07:35:34;2.58;;;1.30;;
11203;SDS011;5659;49.408;11.116;2022-07-10T07:38:01;5.47;;;1.52;;
11203;SDS011;5659;49.408;11.116;2022-07-10T07:40:27;3.80;;;1.23;;
11203;SDS011;5659;49.408;11.116;2022-07-10T07:42:54;5.50;;;1.52;;
11203;SDS011;5659;49.408;11.116;2022-07-10T07:45:20;3.80;;;1.10;;
11203;SDS011;5659;49.408;11.116;2022-07-10T07:47:53;2.92;;;1.33;;
11203;SDS011;5659;49.408;11.116;2022-07-10T07:50:25;4.57;;;1.10;;
11203;SDS011;5659;49.408;11.116;2022-07-10T07:52:52;3.17;;;1.33;;
11203;SDS011;5659;49.408;11.116;2022-07-10T07:55:19;7.60;;;1.10;;
11203;SDS011;5659;49.408;11.116;2022-07-10T07:57:45;3.85;;;1.10;;
11203;SDS011;5659;49.408;11.116;2022-07-10T08:00:12;6.75;;;1.27;;
11203;SDS011;5659;49.408;11.116;2022-07-10T08:02:38;8.20;;;1.80;;
11203;SDS011;5659;49.408;11.116;2022-07-10T08:05:05;3.33;;;1.00;;
11203;SDS011;5659;49.408;11.116;2022-07-10T08:07:41;4.03;;;1.10;;
11203;SDS011;5659;49.408;11.116;2022-07-10T08:10:08;2.63;;;1.15;;
11203;SDS011;5659;49.408;11.116;2022-07-10T08:12:34;2.25;;;1.23;;
11203;SDS011;5659;49.408;11.116;2022-07-10T08:15:00;4.82;;;1.20;;
11203;SDS011;5659;49.408;11.116;2022-07-10T08:17:26;4.35;;;1.08;;
11203;SDS011;5659;49.408;11.116;2022-07-10T08:19:52;5.60;;;1.15;;
11203;SDS011;5659;49.408;11.116;2022-07-10T08:22:19;2.75;;;0.98;;
11203;SDS011;5659;49.408;11.116;2022-07-10T08:24:45;3.42;;;1.23;;
11203;SDS011;5659;49.408;11.116;2022-07-10T08:27:10;2.75;;;1.17;;
11203;SDS011;5659;49.408;11.116;2022-07-10T08:29:37;3.70;;;1.00;;
11203;SDS011;5659;49.408;11.116;2022-07-10T08:32:03;5.50;;;0.93;;
11203;SDS011;5659;49.408;11.116;2022-07-10T08:34:30;3.28;;;0.95;;
11203;SDS011;5659;49.408;11.116;2022-07-10T08:36:58;1.98;;;0.98;;
11203;SDS011;5659;49.408;11.116;2022-07-10T08:39:24;2.67;;;1.13;;
11203;SDS011;5659;49.408;11.116;2022-07-10T08:41:50;2.28;;;1.20;;
11203;SDS011;5659;49.408;11.116;2022-07-10T08:44:17;4.25;;;1.00;;
11203;SDS011;5659;49.408;11.116;2022-07-10T08:46:43;2.80;;;1.00;;
11203;SDS011;5659;49.408;11.116;2022-07-10T08:49:09;4.45;;;1.10;;
11203;SDS011;5659;49.408;11.116;2022-07-10T08:51:37;5.28;;;1.20;;
11203;SDS011;5659;49.408;11.116;2022-07-10T08:54:04;1.45;;;0.70;;
11203;SDS011;5659;49.408;11.116;2022-07-10T08:56:31;3.05;;;0.90;;
11203;SDS011;5659;49.408;11.116;2022-07-10T08:58:57;2.05;;;0.80;;
11203;SDS011;5659;49.408;11.116;2022-07-10T09:01:24;2.95;;;1.20;;
11203;SDS011;5659;49.408;11.116;2022-07-10T09:03:50;1.90;;;1.00;;
11203;SDS011;5659;49.408;11.116;2022-07-10T09:06:17;2.97;;;0.90;;
11203;SDS011;5659;49.408;11.116;2022-07-10T09:09:05;4.10;;;0.88;;
11203;SDS011;5659;49.408;11.116;2022-07-10T09:11:30;2.47;;;1.00;;
11203;SDS011;5659;49.408;11.116;2022-07-10T09:14:00;2.30;;;1.00;;
11203;SDS011;5659;49.408;11.116;2022-07-10T09:16:29;2.08;;;0.82;;
11203;SDS011;5659;49.408;11.116;2022-07-10T09:18:56;3.83;;;1.10;;
11203;SDS011;5659;49.408;11.116;2022-07-10T09:21:22;3.88;;;1.08;;
11203;SDS011;5659;49.408;11.116;2022-07-10T09:23:49;2.13;;;0.90;;
11203;SDS011;5659;49.408;11.116;2022-07-10T09:26:15;4.03;;;1.33;;
11203;SDS011;5659;49.408;11.116;2022-07-10T09:28:41;3.72;;;1.00;;
11203;SDS011;5659;49.408;11.116;2022-07-10T09:31:07;2.25;;;0.90;;
11203;SDS011;5659;49.408;11.116;2022-07-10T09:33:33;2.38;;;1.00;;
11203;SDS011;5659;49.408;11.116;2022-07-10T09:36:03;3.75;;;0.82;;
11203;SDS011;5659;49.408;11.116;2022-07-10T09:41:11;2.45;;;1.00;;
11203;SDS011;5659;49.408;11.116;2022-07-10T09:46:26;4.70;;;1.00;;
11203;SDS011;5659;49.408;11.116;2022-07-10T09:49:02;1.90;;;1.00;;
11203;SDS011;5659;49.408;11.116;2022-07-10T09:51:32;2.13;;;1.10;;
11203;SDS011;5659;49.408;11.116;2022-07-10T09:54:00;2.03;;;1.05;;
11203;SDS011;5659;49.408;11.116;2022-07-10T09:56:27;1.50;;;1.00;;
11203;SDS011;5659;49.408;11.116;2022-07-10T09:58:57;2.50;;;1.00;;
11203;SDS011;5659;49.408;11.116;2022-07-10T10:01:25;2.83;;;1.00;;
11203;SDS011;5659;49.408;11.116;2022-07-10T10:03:52;2.40;;;1.00;;
11203;SDS011;5659;49.408;11.116;2022-07-10T10:06:19;1.10;;;0.95;;
11203;SDS011;5659;49.408;11.116;2022-07-10T10:09:06;2.15;;;0.93;;
11203;SDS011;5659;49.408;11.116;2022-07-10T10:11:33;3.42;;;1.02;;
11203;SDS011;5659;49.408;11.116;2022-07-10T10:14:02;3.03;;;1.20;;
11203;SDS011;5659;49.408;11.116;2022-07-10T10:16:28;1.70;;;1.20;;
11203;SDS011;5659;49.408;11.116;2022-07-10T10:18:55;0.90;;;0.70;;
11203;SDS011;5659;49.408;11.116;2022-07-10T10:21:40;1.80;;;0.90;;
11203;SDS011;5659;49.408;11.116;2022-07-10T10:24:06;3.85;;;0.98;;
11203;SDS011;5659;49.408;11.116;2022-07-10T10:26:32;1.77;;;1.00;;
11203;SDS011;5659;49.408;11.116;2022-07-10T10:28:59;1.80;;;1.00;;
11203;SDS011;5659;49.408;11.116;2022-07-10T10:31:28;2.25;;;1.20;;
11203;SDS011;5659;49.408;11.116;2022-07-10T10:33:56;3.30;;;1.10;;
11203;SDS011;5659;49.408;11.116;2022-07-10T10:39:12;2.03;;;1.10;;
11203;SDS011;5659;49.408;11.116;2022-07-10T10:41:39;3.42;;;1.10;;
11203;SDS011;5659;49.408;11.116;2022-07-10T10:49:20;3.08;;;1.10;;
11203;SDS011;5659;49.408;11.116;2022-07-10T10:51:59;3.15;;;1.00;;
11203;SDS011;5659;49.408;11.116;2022-07-10T10:54:27;3.53;;;1.90;;
11203;SDS011;5659;49.408;11.116;2022-07-10T10:59:50;2.92;;;1.17;;
11203;SDS011;5659;49.408;11.116;2022-07-10T11:02:32;2.85;;;1.17;;
11203;SDS011;5659;49.408;11.116;2022-07-10T11:10:37;4.40;;;1.30;;
11203;SDS011;5659;49.408;11.116;2022-07-10T11:15:29;3.03;;;1.30;;
11203;SDS011;5659;49.408;11.116;2022-07-10T11:17:57;3.38;;;1.70;;
11203;SDS011;5659;49.408;11.116;2022-07-10T11:20:24;2.63;;;1.38;;
11203;SDS011;5659;49.408;11.116;2022-07-10T11:30:19;5.57;;;1.75;;
11203;SDS011;5659;49.408;11.116;2022-07-10T11:32:45;2.70;;;1.42;;
11203;SDS011;5659;49.408;11.116;2022-07-10T11:35:14;3.53;;;1.73;;
11203;SDS011;5659;49.408;11.116;2022-07-10T11:37:50;3.60;;;1.48;;
11203;SDS011;5659;49.408;11.116;2022-07-10T11:40:16;8.50;;;1.52;;
11203;SDS011;5659;49.408;11.116;2022-07-10T11:42:54;4.43;;;1.60;;
11203;SDS011;5659;49.408;11.116;2022-07-10T11:45:21;4.75;;;1.45;;
11203;SDS011;5659;49.408;11.116;2022-07-10T11:47:47;5.60;;;1.67;;
11203;SDS011;5659;49.408;11.116;2022-07-10T11:50:13;3.95;;;1.40;;
11203;SDS011;5659;49.408;11.116;2022-07-10T11:52:40;3.88;;;1.13;;
11203;SDS011;5659;49.408;11.116;2022-07-10T11:55:13;3.17;;;1.45;;
11203;SDS011;5659;49.408;11.116;2022-07-10T11:57:39;3.88;;;1.40;;
11203;SDS011;5659;49.408;11.116;2022-07-10T12:00:26;3.53;;;1.40;;
11203;SDS011;5659;49.408;11.116;2022-07-10T12:02:53;3.45;;;1.38;;
11203;SDS011;5659;49.408;11.116;2022-07-10T12:05:32;4.13;;;1.20;;
11203;SDS011;5659;49.408;11.116;2022-07-10T12:07:59;2.40;;;1.30;;
11203;SDS011;5659;49.408;11.116;2022-07-10T12:10:28;3.55;;;1.83;;
11203;SDS011;5659;49.408;11.116;2022-07-10T12:13:07;3.97;;;1.85;;
11203;SDS011;5659;49.408;11.116;2022-07-10T12:15:36;1.08;;;0.93;;
11203;SDS011;5659;49.408;11.116;2022-07-10T12:18:06;4.50;;;1.00;;
11203;SDS011;5659;49.408;11.116;2022-07-10T12:20:33;2.40;;;1.02;;
11203;SDS011;5659;49.408;11.116;2022-07-10T12:22:59;3.13;;;1.17;;
11203;SDS011;5659;49.408;11.116;2022-07-10T12:25:25;1.02;;;0.82;;
11203;SDS011;5659;49.408;11.116;2022-07-10T12:27:55;1.60;;;0.90;;
11203;SDS011;5659;49.408;11.116;2022-07-10T12:30:22;1.77;;;1.10;;
11203;SDS011;5659;49.408;11.116;2022-07-10T12:32:48;3.80;;;1.40;;
11203;SDS011;5659;49.408;11.116;2022-07-10T12:35:14;2.33;;;1.00;;
11203;SDS011;5659;49.408;11.116;2022-07-10T12:37:49;4.57;;;2.17;;
11203;SDS011;5659;49.408;11.116;2022-07-10T12:40:35;2.85;;;1.23;;
11203;SDS011;5659;49.408;11.116;2022-07-10T12:43:02;4.88;;;1.60;;
11203;SDS011;5659;49.408;11.116;2022-07-10T12:45:28;6.60;;;1.20;;
11203;SDS011;5659;49.408;11.116;2022-07-10T12:47:54;5.03;;;1.10;;
11203;SDS011;5659;49.408;11.116;2022-07-10T12:50:20;3.22;;;1.38;;
11203;SDS011;5659;49.408;11.116;2022-07-10T12:52:50;1.92;;;1.20;;
11203;SDS011;5659;49.408;11.116;2022-07-10T12:55:36;2.78;;;1.25;;
11203;SDS011;5659;49.408;11.116;2022-07-10T12:58:09;4.05;;;1.38;;
11203;SDS011;5659;49.408;11.116;2022-07-10T13:00:44;3.28;;;1.05;;
11203;SDS011;5659;49.408;11.116;2022-07-10T13:03:16;3.33;;;1.55;;
11203;SDS011;5659;49.408;11.116;2022-07-10T13:05:42;6.35;;;1.40;;
11203;SDS011;5659;49.408;11.116;2022-07-10T13:08:16;1.45;;;1.00;;
11203;SDS011;5659;49.408;11.116;2022-07-10T13:10:45;1.80;;;1.00;;
11203;SDS011;5659;49.408;11.116;2022-07-10T13:13:11;2.08;;;1.20;;
11203;SDS011;5659;49.408;11.116;2022-07-10T13:15:37;1.88;;;1.05;;
11203;SDS011;5659;49.408;11.116;2022-07-10T13:18:15;2.45;;;1.30;;
11203;SDS011;5659;49.408;11.116;2022-07-10T13:20:42;3.78;;;0.88;;
11203;SDS011;5659;49.408;11.116;2022-07-10T13:23:08;3.08;;;1.05;;
11203;SDS011;5659;49.408;11.116;2022-07-10T13:25:34;1.50;;;1.02;;
11203;SDS011;5659;49.408;11.116;2022-07-10T13:28:00;2.42;;;0.90;;
11203;SDS011;5659;49.408;11.116;2022-07-10T13:30:27;2.05;;;0.88;;
11203;SDS011;5659;49.408;11.116;2022-07-10T13:32:53;1.70;;;0.80;;
11203;SDS011;5659;49.408;11.116;2022-07-10T13:35:19;2.67;;;0.90;;
11203;SDS011;5659;49.408;11.116;2022-07-10T13:37:45;2.40;;;1.08;;
11203;SDS011;5659;49.408;11.116;2022-07-10T13:40:12;1.30;;;0.82;;
11203;SDS011;5659;49.408;11.116;2022-07-10T13:42:38;1.80;;;0.70;;
11203;SDS011;5659;49.408;11.116;2022-07-10T13:45:04;1.85;;;1.00;;
11203;SDS011;5659;49.408;11.116;2022-07-10T13:47:30;2.00;;;0.80;;
11203;SDS011;5659;49.408;11.116;2022-07-10T13:49:56;2.20;;;0.82;;
11203;SDS011;5659;49.408;11.116;2022-07-10T13:52:22;1.67;;;0.80;;
11203;SDS011;5659;49.408;11.116;2022-07-10T13:54:48;1.33;;;0.80;;
11203;SDS011;5659;49.408;11.116;2022-07-10T13:57:14;2.88;;;0.70;;
11203;SDS011;5659;49.408;11.116;2022-07-10T13:59:40;2.10;;;0.90;;
11203;SDS011;5659;49.408;11.116;2022-07-10T14:02:06;5.82;;;0.90;;
11203;SDS011;5659;49.408;11.116;2022-07-10T14:04:32;1.83;;;0.85;;
11203;SDS011;5659;49.408;11.116;2022-07-10T14:06:58;3.55;;;1.15;;
11203;SDS011;5659;49.408;11.116;2022-07-10T14:09:24;3.85;;;1.20;;
11203;SDS011;5659;49.408;11.116;2022-07-10T14:11:51;3.75;;;1.23;;
11203;SDS011;5659;49.408;11.116;2022-07-10T14:14:17;3.80;;;1.00;;
11203;SDS011;5659;49.408;11.116;2022-07-10T14:16:43;5.10;;;1.02;;
11203;SDS011;5659;49.408;11.116;2022-07-10T14:19:09;1.50;;;0.77;;
11203;SDS011;5659;49.408;11.116;2022-07-10T14:21:35;1.52;;;0.73;;
11203;SDS011;5659;49.408;11.116;2022-07-10T14:24:03;1.48;;;0.90;;
11203;SDS011;5659;49.408;11.116;2022-07-10T14:26:29;1.48;;;1.00;;
11203;SDS011;5659;49.408;11.116;2022-07-10T14:28:56;3.60;;;1.20;;
11203;SDS011;5659;49.408;11.116;2022-07-10T14:31:22;2.47;;;0.80;;
11203;SDS011;5659;49.408;11.116;2022-07-10T14:33:48;2.47;;;0.73;;
11203;SDS011;5659;49.408;11.116;2022-07-10T14:36:14;2.42;;;0.80;;
11203;SDS011;5659;49.408;11.116;2022-07-10T14:38:40;4.32;;;0.90;;
11203;SDS011;5659;49.408;11.116;2022-07-10T14:41:06;1.95;;;0.80;;
11203;SDS011;5659;49.408;11.116;2022-07-10T14:43:32;1.70;;;0.80;;
11203;SDS011;5659;49.408;11.116;2022-07-10T14:45:59;0.73;;;0.57;;
11203;SDS011;5659;49.408;11.116;2022-07-10T14:48:28;2.25;;;1.02;;
11203;SDS011;5659;49.408;11.116;2022-07-10T14:50:55;3.90;;;1.00;;
11203;SDS011;5659;49.408;11.116;2022-07-10T14:53:22;2.17;;;0.82;;
11203;SDS011;5659;49.408;11.116;2022-07-10T14:55:48;1.88;;;0.80;;
11203;SDS011;5659;49.408;11.116;2022-07-10T14:58:14;2.10;;;0.73;;
11203;SDS011;5659;49.408;11.116;2022-07-10T15:00:41;3.95;;;1.10;;
11203;SDS011;5659;49.408;11.116;2022-07-10T15:03:07;2.80;;;0.85;;
11203;SDS011;5659;49.408;11.116;2022-07-10T15:05:33;2.05;;;1.00;;
11203;SDS011;5659;49.408;11.116;2022-07-10T15:08:00;2.53;;;1.15;;
11203;SDS011;5659;49.408;11.116;2022-07-10T15:10:26;2.40;;;0.93;;
11203;SDS011;5659;49.408;11.116;2022-07-10T15:12:53;1.92;;;0.80;;
11203;SDS011;5659;49.408;11.116;2022-07-10T15:15:19;1.50;;;0.90;;
11203;SDS011;5659;49.408;11.116;2022-07-10T15:17:45;2.88;;;1.00;;
11203;SDS011;5659;49.408;11.116;2022-07-10T15:20:14;4.78;;;1.15;;